Weather History for Sturgeon Bay, WI

Change the Weather History Date:

Monday, September 16, 2013

  Actual Average Record
Temperature  
Mean Temperature 48 °F -  
Max Temperature 57 °F 67 °F 82 °F (1955)
Min Temperature 42 °F 48 °F 34 °F (1916)
Degree Days  
Heating Degree Days 16    
Moisture  
Dew Point 39 °F    
Average Humidity 66    
Maximum Humidity 82    
Minimum Humidity 54    
Precipitation  
Precipitation 0.00 in - - ()
Sea Level Pressure  
Sea Level Pressure 30.38 in    
Wind  
Wind Speed 8 mph (NE)    
Max Wind Speed 13 mph    
Max Gust Speed 18 mph    
Visibility 10 miles    
Events      
Averages and records for this station are not official NWS values.
T = Trace of Precipitation, MM = Missing Value Source: NWS Daily Summary

Daily Weather History Graph

Daily Weather History Graph

Search for Another Location

Airport:

Trip Planner

Search our weather history database for the weather conditions in past years. The results will help you decide how hot, cold, wet, or windy it might be!

Date:

Astronomy

Sep. 16, 2013 Rise Set
Actual Time 6:29 AM CDT 6:58 PM CDT
Civil Twilight 6:00 AM CDT 7:27 PM CDT
Nautical Twilight 5:25 AM CDT 8:02 PM CDT
Astronomical Twilight 4:49 AM CDT 8:37 PM CDT
Moon 5:11 PM CDT (9/16) 3:09 AM CDT (9/16)
Length of Visible Light 13h 26m
Length of Day
12h 28m
Waxing Gibbous, 90% of the Moon is Illuminated
Sep 16
Waxing Gibbous
Sep 19
Full
Sep 26
Last Quarter
Oct 4
New
Oct 11
First Quarter

Hourly Weather History & Observations

Time (CDT) Temp. Windchill Dew Point Humidity Pressure Visibility Wind Dir Wind Speed Gust Speed Precip Events Conditions
12:15 AM 48.2 °F - 39.2 °F 71% 30.28 in 10.0 mi NE 8.1 mph - N/A   Overcast
12:35 AM 48.2 °F - 39.2 °F 71% 30.28 in 10.0 mi NNE 9.2 mph - N/A   Overcast
12:55 AM 48.2 °F - 39.2 °F 71% 30.29 in 10.0 mi NNE 9.2 mph - N/A   Overcast
1:15 AM 48.2 °F - 39.2 °F 71% 30.29 in 10.0 mi NE 8.1 mph - N/A   Overcast
1:35 AM 48.2 °F - 39.2 °F 71% 30.30 in 10.0 mi NE 8.1 mph - N/A   Mostly Cloudy
1:55 AM 46.4 °F 41.9 °F 39.2 °F 76% 30.30 in 10.0 mi NNE 9.2 mph - N/A   Scattered Clouds
2:15 AM 46.4 °F 41.9 °F 39.2 °F 76% 30.30 in 10.0 mi NNE 9.2 mph - N/A   Partly Cloudy
2:35 AM 48.2 °F - 39.2 °F 71% 30.30 in 10.0 mi NE 9.2 mph - N/A   Mostly Cloudy
2:55 AM 48.2 °F - 39.2 °F 71% 30.31 in 10.0 mi NNE 9.2 mph - N/A   Overcast
3:15 AM 48.2 °F - 41.0 °F 76% 30.31 in 10.0 mi NNE 5.8 mph - N/A   Overcast
3:35 AM 48.2 °F - 42.8 °F 82% 30.32 in 10.0 mi NNE 5.8 mph - N/A   Overcast
3:55 AM 48.2 °F - 42.8 °F 82% 30.32 in 10.0 mi NNE 6.9 mph - N/A   Overcast
4:15 AM 48.2 °F - 42.8 °F 82% 30.33 in 10.0 mi NE 5.8 mph - N/A   Overcast
4:35 AM 48.2 °F - 39.2 °F 71% 30.33 in 10.0 mi NNE 9.2 mph - N/A   Overcast
4:55 AM 48.2 °F - 39.2 °F 71% 30.34 in 10.0 mi NE 9.2 mph - N/A   Mostly Cloudy
5:15 AM 48.2 °F - 37.4 °F 66% 30.34 in 10.0 mi NE 9.2 mph - N/A   Mostly Cloudy
5:35 AM 48.2 °F - 37.4 °F 66% 30.35 in 10.0 mi NNE 10.4 mph - N/A   Partly Cloudy
5:55 AM 48.2 °F - 37.4 °F 66% 30.36 in 10.0 mi NNE 10.4 mph - N/A   Partly Cloudy
6:15 AM 48.2 °F - 37.4 °F 66% 30.37 in 10.0 mi NNE 10.4 mph 17.3 mph N/A   Clear
6:35 AM 46.4 °F 41.1 °F 37.4 °F 71% 30.37 in 10.0 mi North 11.5 mph - N/A   Clear
6:55 AM 46.4 °F 41.1 °F 37.4 °F 71% 30.38 in 10.0 mi NNE 11.5 mph - N/A   Clear
7:15 AM 48.2 °F - 37.4 °F 66% 30.39 in 10.0 mi NNE 11.5 mph - N/A   Clear
7:35 AM 48.2 °F - 37.4 °F 66% 30.39 in 10.0 mi NNE 10.4 mph - N/A   Clear
7:55 AM 48.2 °F - 37.4 °F 66% 30.40 in 10.0 mi NNE 8.1 mph - N/A   Clear
8:15 AM 50.0 °F - 37.4 °F 62% 30.40 in 10.0 mi NNE 11.5 mph - N/A   Clear
8:35 AM 50.0 °F - 39.2 °F 66% 30.40 in 10.0 mi NNE 9.2 mph 16.1 mph N/A   Clear
8:55 AM 51.8 °F - 39.2 °F 62% 30.41 in 10.0 mi NNE 10.4 mph - N/A   Clear
9:15 AM 51.8 °F - 39.2 °F 62% 30.41 in 10.0 mi NNE 12.7 mph - N/A   Clear
9:35 AM 51.8 °F - 39.2 °F 62% 30.42 in 10.0 mi NNE 11.5 mph - N/A   Clear
9:55 AM 53.6 °F - 39.2 °F 58% 30.42 in 10.0 mi NE 10.4 mph - N/A   Scattered Clouds
10:15 AM 53.6 °F - 39.2 °F 58% 30.43 in 10.0 mi ENE 6.9 mph - N/A   Mostly Cloudy
10:35 AM 53.6 °F - 39.2 °F 58% 30.43 in 10.0 mi NE 8.1 mph - N/A   Mostly Cloudy
10:55 AM 53.6 °F - 37.4 °F 54% 30.43 in 10.0 mi NNE 12.7 mph - N/A   Mostly Cloudy
11:15 AM 53.6 °F - 39.2 °F 58% 30.44 in 10.0 mi NE 11.5 mph - N/A   Partly Cloudy
11:35 AM 53.6 °F - 39.2 °F 58% 30.44 in 10.0 mi NE 9.2 mph - N/A   Scattered Clouds
11:55 AM 55.4 °F - 39.2 °F 54% 30.44 in 10.0 mi NE 8.1 mph 18.4 mph N/A   Mostly Cloudy
12:15 PM 55.4 °F - 39.2 °F 54% 30.43 in 10.0 mi NNE 5.8 mph - N/A   Scattered Clouds
12:35 PM 55.4 °F - 39.2 °F 54% 30.43 in 10.0 mi ENE 8.1 mph - N/A   Partly Cloudy
12:55 PM 55.4 °F - 39.2 °F 54% 30.43 in 10.0 mi NE 8.1 mph - N/A   Scattered Clouds
1:15 PM 55.4 °F - 41.0 °F 58% 30.43 in 10.0 mi East 5.8 mph - N/A   Mostly Cloudy
1:35 PM 55.4 °F - 39.2 °F 54% 30.43 in 10.0 mi East 8.1 mph - N/A   Scattered Clouds
1:55 PM 55.4 °F - 41.0 °F 58% 30.42 in 10.0 mi NNE 4.6 mph - N/A   Partly Cloudy
2:15 PM 55.4 °F - 39.2 °F 54% 30.42 in 10.0 mi East 5.8 mph - N/A   Mostly Cloudy
2:35 PM 55.4 °F - 39.2 °F 54% 30.42 in 10.0 mi NE 5.8 mph - N/A   Scattered Clouds
2:55 PM 55.4 °F - 39.2 °F 54% 30.41 in 10.0 mi ENE 8.1 mph - N/A   Partly Cloudy
3:15 PM 55.4 °F - 39.2 °F 54% 30.41 in 10.0 mi SE 4.6 mph - N/A   Clear
3:35 PM 55.4 °F - 39.2 °F 54% 30.40 in 10.0 mi ENE 8.1 mph - N/A   Partly Cloudy
3:55 PM 55.4 °F - 39.2 °F 54% 30.40 in 10.0 mi ENE 6.9 mph - N/A   Clear
4:15 PM 55.4 °F - 39.2 °F 54% 30.40 in 10.0 mi ENE 8.1 mph - N/A   Clear
4:35 PM 55.4 °F - 41.0 °F 58% 30.40 in 10.0 mi East 5.8 mph - N/A   Clear
4:55 PM 55.4 °F - 39.2 °F 54% 30.40 in 10.0 mi East 8.1 mph - N/A   Clear
5:15 PM 53.6 °F - 37.4 °F 54% 30.40 in 10.0 mi ENE 8.1 mph - N/A   Clear
5:35 PM 53.6 °F - 39.2 °F 58% 30.39 in 10.0 mi East 8.1 mph - N/A   Clear
5:55 PM 53.6 °F - 39.2 °F 58% 30.39 in 10.0 mi East 4.6 mph - N/A   Clear
6:15 PM 51.8 °F - 37.4 °F 58% 30.39 in 10.0 mi East 4.6 mph - N/A   Clear
6:35 PM 51.8 °F - 37.4 °F 58% 30.39 in 10.0 mi East 4.6 mph - N/A   Clear
6:55 PM 50.0 °F - 39.2 °F 66% 30.38 in 10.0 mi ESE 5.8 mph - N/A   Clear
7:15 PM 48.2 °F - 39.2 °F 71% 30.38 in 10.0 mi ESE 5.8 mph - N/A   Clear
7:35 PM 48.2 °F - 37.4 °F 66% 30.38 in 10.0 mi East 5.8 mph - N/A   Clear
7:55 PM 48.2 °F - 39.2 °F 71% 30.38 in 10.0 mi ESE 5.8 mph - N/A   Clear
8:15 PM 48.2 °F - 39.2 °F 71% 30.38 in 10.0 mi ESE 3.5 mph - N/A   Clear
8:35 PM 48.2 °F - 39.2 °F 71% 30.38 in 10.0 mi ESE 4.6 mph - N/A   Clear
8:55 PM 48.2 °F - 39.2 °F 71% 30.37 in 10.0 mi East 3.5 mph - N/A   Clear
9:15 PM 46.4 °F 45.2 °F 39.2 °F 76% 30.37 in 10.0 mi ESE 3.5 mph - N/A   Clear
9:35 PM 48.2 °F - 39.2 °F 71% 30.37 in 10.0 mi East 4.6 mph - N/A   Clear
9:55 PM 42.8 °F - 37.4 °F 81% 30.37 in 10.0 mi Calm Calm - N/A   Clear
10:15 PM 42.8 °F - 37.4 °F 81% 30.37 in 10.0 mi Calm Calm - N/A   Clear
10:35 PM 42.8 °F 41.1 °F 37.4 °F 81% 30.37 in 10.0 mi ESE 3.5 mph - N/A   Clear
10:55 PM 42.8 °F 41.1 °F 37.4 °F 81% 30.37 in 10.0 mi ESE 3.5 mph - N/A   Clear
11:15 PM 42.8 °F - 37.4 °F 81% 30.37 in 10.0 mi Calm Calm - N/A   Clear
11:35 PM 42.8 °F - 37.4 °F 81% 30.37 in 10.0 mi Calm Calm - N/A   Clear
11:55 PM 42.8 °F - 37.4 °F 81% 30.37 in 10.0 mi Calm Calm - N/A   Clear